Time;durP1;ratioP1;P1;durP2;ratioP2;P2;SDS_P1;SDS_P2;PMS_P1;PMS_P2;Temp;Humidity;BMP_temperature;BMP_pressure;BME280_temperature;BME280_humidity;BME280_pressure;Samples;Min_cycle;Max_cycle;Signal;HPM_P1;HPM_P2
2023/01/17 00:02:00;;;;;;;81.53;52.00;;;;;;;2.17;100.00;96701.50;5014509;28;20073;-78
2023/01/17 00:09:58;;;;;;;85.55;56.35;;;;;;;2.12;100.00;96695.81;5014508;28;20085;-78
2023/01/17 00:12:27;;;;;;;82.57;52.35;;;;;;;2.17;100.00;96701.50;5014317;28;20030;-78
2023/01/17 00:14:54;;;;;;;81.38;53.22;;;;;;;2.16;100.00;96697.28;5013199;28;20030;-79
2023/01/17 00:17:21;;;;;;;77.88;51.40;;;;;;;2.11;100.00;96696.75;5013171;28;20022;-89
2023/01/17 01:35:00;;;;;;;62.95;40.92;;;;;;;1.52;100.00;96695.91;5012910;28;20049;-80
2023/01/17 01:37:26;;;;;;;63.55;42.95;;;;;;;1.57;100.00;96710.13;5011550;28;20014;-79
2023/01/17 01:39:51;;;;;;;62.90;40.42;;;;;;;1.56;100.00;96705.94;5012385;28;20057;-79
2023/01/17 01:42:16;;;;;;;60.53;40.35;;;;;;;1.60;100.00;96712.53;5012916;28;20022;-79
2023/01/17 01:44:50;;;;;;;71.30;43.08;;;;;;;1.56;100.00;96711.06;5012637;28;20022;-78
2023/01/17 01:47:39;;;;;;;64.85;39.00;;;;;;;1.57;100.00;96710.13;5012875;28;20064;-78
2023/01/17 01:50:09;;;;;;;55.42;37.00;;;;;;;1.57;100.00;96711.88;5012932;28;20037;-79
2023/01/17 01:52:38;;;;;;;50.90;33.90;;;;;;;1.49;100.00;96702.88;5012621;28;20054;-78
2023/01/17 01:55:11;;;;;;;55.58;35.40;;;;;;;1.57;100.00;96702.44;5012665;28;20060;-79
2023/01/17 01:57:41;;;;;;;62.10;38.47;;;;;;;1.50;100.00;96690.88;5012322;28;20017;-79
2023/01/17 02:00:24;;;;;;;60.22;37.45;;;;;;;1.48;100.00;96679.91;5012494;28;20032;-79
2023/01/17 02:02:52;;;;;;;62.35;39.20;;;;;;;1.53;100.00;96683.00;5010882;28;20481;-79
2023/01/17 02:05:21;;;;;;;50.13;32.17;;;;;;;1.54;100.00;96688.97;5012644;28;20104;-79
2023/01/17 02:07:53;;;;;;;52.47;32.55;;;;;;;1.51;100.00;96677.13;5012233;28;20465;-78
2023/01/17 02:10:18;;;;;;;46.78;30.70;;;;;;;1.48;100.00;96667.91;5012405;28;20033;-78
2023/01/17 02:12:44;;;;;;;50.40;31.90;;;;;;;1.52;100.00;96665.97;5012019;28;20024;-78
2023/01/17 02:15:10;;;;;;;47.42;29.15;;;;;;;1.47;100.00;96668.78;5012228;28;20032;-79
2023/01/17 02:17:44;;;;;;;36.88;25.95;;;;;;;1.48;100.00;96669.63;5012043;28;20400;-79
2023/01/17 02:20:21;;;;;;;39.78;26.63;;;;;;;1.47;100.00;96673.91;5012302;28;20076;-79
2023/01/17 02:23:18;;;;;;;44.63;27.17;;;;;;;1.44;100.00;96671.56;5012231;28;20025;-79
2023/01/17 02:25:59;;;;;;;35.47;25.70;;;;;;;1.44;100.00;96676.69;5012199;28;20104;-78
2023/01/17 02:28:42;;;;;;;40.17;24.73;;;;;;;1.46;100.00;96668.88;5012416;28;20078;-78
2023/01/17 02:31:31;;;;;;;37.58;25.15;;;;;;;1.42;100.00;96673.34;5012334;28;20021;-78
2023/01/17 02:34:06;;;;;;;38.85;24.85;;;;;;;1.36;100.00;96671.16;5012061;28;20038;-79
2023/01/17 02:36:42;;;;;;;41.22;24.85;;;;;;;1.35;100.00;96673.78;5012513;28;20026;-78
2023/01/17 02:39:20;;;;;;;39.65;25.17;;;;;;;1.39;100.00;96668.44;5012429;28;20470;-79
2023/01/17 02:41:51;;;;;;;34.92;24.48;;;;;;;1.35;100.00;96658.41;5011765;28;20151;-79
2023/01/17 02:44:19;;;;;;;36.63;23.90;;;;;;;1.35;100.00;96656.69;5012109;28;20057;-79
2023/01/17 02:46:56;;;;;;;36.15;23.35;;;;;;;1.29;100.00;96648.53;5011661;28;20022;-78
2023/01/17 02:49:26;;;;;;;31.13;21.70;;;;;;;1.23;100.00;96642.84;5012137;28;20033;-78
2023/01/17 02:52:05;;;;;;;27.83;19.45;;;;;;;1.28;100.00;96655.38;5011840;28;20064;-79
2023/01/17 02:55:01;;;;;;;23.30;16.67;;;;;;;1.22;100.00;96650.59;5011823;28;20458;-78
2023/01/17 02:57:57;;;;;;;23.58;16.08;;;;;;;1.22;100.00;96653.16;5008893;28;20404;-94
2023/01/17 03:00:47;;;;;;;19.52;13.40;;;;;;;1.23;100.00;96642.00;5010037;28;20061;-89
2023/01/17 03:03:43;;;;;;;16.20;12.13;;;;;;;1.24;100.00;96633.41;5009652;28;20030;-88
2023/01/17 03:06:13;;;;;;;15.15;10.73;;;;;;;1.20;100.00;96625.06;4992856;28;20139;-85
2023/01/17 03:08:41;;;;;;;13.50;10.57;;;;;;;1.22;100.00;96638.63;5009389;28;20034;-87
2023/01/17 03:11:08;;;;;;;13.68;10.45;;;;;;;1.14;100.00;96628.00;4992916;28;20038;-86
2023/01/17 03:13:34;;;;;;;15.32;9.80;;;;;;;1.21;100.00;96636.94;4992896;28;20022;-87
2023/01/17 03:16:03;;;;;;;11.75;9.38;;;;;;;1.20;100.00;96637.88;5009380;28;20042;-88
2023/01/17 03:18:28;;;;;;;13.35;9.70;;;;;;;1.14;100.00;96628.00;4992830;28;20100;-87
2023/01/17 03:20:53;;;;;;;12.68;10.07;;;;;;;1.18;100.00;96641.44;5008786;28;20061;-87
2023/01/17 03:23:19;;;;;;;12.98;9.30;;;;;;;1.19;100.00;96645.66;4992712;28;20022;-88
2023/01/17 03:25:44;;;;;;;13.20;9.00;;;;;;;1.23;100.00;96653.09;4992183;28;20033;-78
2023/01/17 03:28:09;;;;;;;12.13;8.68;;;;;;;1.20;100.00;96648.13;5008911;28;20029;-80
2023/01/17 03:30:35;;;;;;;11.25;9.02;;;;;;;1.17;100.00;96642.34;5009164;28;20026;-80
2023/01/17 03:33:00;;;;;;;10.48;8.27;;;;;;;1.22;100.00;96653.16;4989254;28;20070;-80
2023/01/17 03:35:27;;;;;;;11.98;9.32;;;;;;;1.24;100.00;96659.03;4975844;28;20109;-81
2023/01/17 03:37:52;;;;;;;11.20;9.00;;;;;;;1.17;100.00;96653.41;4970536;28;20432;-81
2023/01/17 03:40:17;;;;;;;12.23;9.52;;;;;;;1.24;100.00;96672.69;4957485;28;20027;-81
2023/01/17 03:42:43;;;;;;;11.38;9.68;;;;;;;1.27;100.00;96673.44;4979622;28;20178;-81
2023/01/17 03:45:08;;;;;;;12.02;8.88;;;;;;;1.27;100.00;96678.56;4964706;28;20113;-81
2023/01/17 03:47:35;;;;;;;12.90;9.00;;;;;;;1.28;100.00;96677.63;4992956;28;20046;-81
2023/01/17 03:50:00;;;;;;;10.80;8.25;;;;;;;1.21;100.00;96667.72;4992754;28;20553;-81
2023/01/17 03:52:25;;;;;;;10.93;8.38;;;;;;;1.24;100.00;96671.84;4992949;28;20069;-81
2023/01/17 03:54:51;;;;;;;10.30;8.20;;;;;;;1.24;100.00;96688.06;4976221;28;20019;-81
2023/01/17 03:57:16;;;;;;;10.57;7.75;;;;;;;1.23;100.00;96683.03;4976525;28;20032;-82
2023/01/17 03:59:41;;;;;;;9.98;7.45;;;;;;;1.20;100.00;96675.50;4992438;28;20030;-82
2023/01/17 04:02:07;;;;;;;9.90;7.65;;;;;;;1.20;100.00;96670.38;4976409;28;20117;-82
2023/01/17 04:04:32;;;;;;;10.15;8.00;;;;;;;1.15;100.00;96662.13;5008520;28;20034;-82
2023/01/17 04:06:58;;;;;;;10.95;8.38;;;;;;;1.13;100.00;96666.50;5014511;28;20365;-82
2023/01/17 04:09:23;;;;;;;11.20;8.65;;;;;;;1.16;100.00;96674.84;5013300;28;20373;-81
2023/01/17 04:11:49;;;;;;;10.75;7.68;;;;;;;1.11;100.00;96673.47;5014419;28;20030;-82
2023/01/17 04:14:15;;;;;;;10.52;7.13;;;;;;;1.08;100.00;96681.31;5014455;28;20052;-82
2023/01/17 04:16:41;;;;;;;11.52;7.97;;;;;;;1.14;100.00;96704.88;5013399;28;20482;-81
2023/01/17 04:19:11;;;;;;;9.77;7.28;;;;;;;1.16;100.00;96694.53;5014918;28;20042;-81
2023/01/17 04:21:36;;;;;;;8.10;7.30;;;;;;;1.10;100.00;96687.19;5014419;28;20140;-81
2023/01/17 04:24:01;;;;;;;13.60;8.27;;;;;;;1.15;100.00;96695.44;5013852;28;20362;-81
2023/01/17 04:26:27;;;;;;;13.73;9.70;;;;;;;1.14;100.00;96692.06;5013995;28;20516;-82
2023/01/17 04:28:52;;;;;;;13.57;9.30;;;;;;;1.17;100.00;96686.75;5013811;28;20034;-81
2023/01/17 04:31:17;;;;;;;9.95;7.45;;;;;;;1.18;100.00;96692.69;5029630;28;20021;-81
2023/01/17 04:33:43;;;;;;;11.23;8.50;;;;;;;1.14;100.00;96691.25;5014005;28;20031;-82
2023/01/17 04:36:08;;;;;;;10.13;8.27;;;;;;;1.09;100.00;96680.41;5012965;28;20116;-81
2023/01/17 04:38:34;;;;;;;9.10;6.93;;;;;;;1.07;100.00;96677.94;5013975;28;20346;-81
2023/01/17 04:40:59;;;;;;;11.75;9.45;;;;;;;1.09;100.00;96677.84;5028895;28;20109;-81
2023/01/17 04:43:24;;;;;;;9.07;7.03;;;;;;;1.13;100.00;96684.44;5012509;28;20488;-82
2023/01/17 04:45:55;;;;;;;9.32;7.43;;;;;;;1.05;100.00;96669.50;5013851;28;20022;-82
2023/01/17 04:48:20;;;;;;;9.98;7.72;;;;;;;1.12;100.00;96681.06;5013631;28;20026;-82
2023/01/17 04:50:45;;;;;;;10.13;7.10;;;;;;;1.16;100.00;96685.09;5012525;28;20017;-82
2023/01/17 04:53:11;;;;;;;9.95;7.13;;;;;;;1.10;100.00;96674.38;5012070;28;20025;-82
2023/01/17 04:55:36;;;;;;;12.68;9.48;;;;;;;1.13;100.00;96681.88;5012176;28;20411;-81
2023/01/17 04:58:01;;;;;;;20.50;16.50;;;;;;;1.10;100.00;96682.91;5013172;28;20050;-81
2023/01/17 05:00:27;;;;;;;12.88;10.18;;;;;;;1.08;100.00;96679.59;5012268;28;20076;-81
2023/01/17 05:02:52;;;;;;;14.90;9.45;;;;;;;1.20;100.00;96683.19;5013828;28;20038;-81
2023/01/17 05:05:17;;;;;;;12.90;10.15;;;;;;;1.18;100.00;96696.13;5013582;28;20037;-81
2023/01/17 05:07:43;;;;;;;12.60;7.80;;;;;;;1.18;100.00;96695.25;5013344;28;20084;-81
2023/01/17 05:10:09;;;;;;;12.10;9.27;;;;;;;1.21;100.00;96701.03;5013431;28;20033;-81
2023/01/17 05:12:34;;;;;;;12.48;8.60;;;;;;;1.14;100.00;96686.13;5013254;28;20631;-81
2023/01/17 05:15:00;;;;;;;13.45;8.48;;;;;;;1.19;100.00;96689.25;5013397;28;20072;-81
2023/01/17 05:17:25;;;;;;;11.02;8.48;;;;;;;1.20;100.00;96708.84;5013102;28;20025;-81
2023/01/17 05:19:51;;;;;;;10.40;8.40;;;;;;;1.19;100.00;96697.75;5011793;28;20022;-82
2023/01/17 05:22:16;;;;;;;12.60;9.20;;;;;;;1.25;100.00;96706.84;5013184;28;20018;-81
2023/01/17 05:24:46;;;;;;;9.90;8.40;;;;;;;1.22;100.00;96695.03;5013210;28;20029;-81
2023/01/17 05:27:12;;;;;;;11.90;8.32;;;;;;;1.21;100.00;96698.47;5013203;28;20057;-81
2023/01/17 05:29:37;;;;;;;12.43;8.93;;;;;;;1.16;100.00;96687.66;5013257;28;20470;-81
2023/01/17 05:32:03;;;;;;;12.40;8.77;;;;;;;1.17;100.00;96693.63;5012665;28;20068;-81
2023/01/17 05:34:29;;;;;;;11.73;8.55;;;;;;;1.11;100.00;96681.16;5012877;28;20022;-81
2023/01/17 05:36:54;;;;;;;15.60;11.15;;;;;;;1.12;100.00;96696.44;5011595;28;20022;-81
2023/01/17 05:39:20;;;;;;;15.10;9.95;;;;;;;1.15;100.00;96706.53;5013002;28;20099;-81
2023/01/17 05:41:45;;;;;;;14.52;9.23;;;;;;;1.08;100.00;96692.41;5012907;28;20061;-81
2023/01/17 05:44:11;;;;;;;13.80;9.45;;;;;;;1.11;100.00;96694.78;5013102;28;20114;-81
2023/01/17 05:46:36;;;;;;;12.50;8.80;;;;;;;1.04;100.00;96693.47;5012982;28;20022;-81
2023/01/17 05:49:02;;;;;;;13.80;8.55;;;;;;;1.10;100.00;96705.97;5012543;28;20021;-81
2023/01/17 05:51:28;;;;;;;12.38;8.65;;;;;;;1.17;100.00;96717.50;5013045;28;20029;-81
2023/01/17 05:53:53;;;;;;;11.95;9.35;;;;;;;1.15;100.00;96701.41;5012510;28;20022;-81
2023/01/17 05:56:18;;;;;;;13.63;10.20;;;;;;;1.23;100.00;96718.94;5012601;28;20097;-81
2023/01/17 05:58:44;;;;;;;14.35;9.80;;;;;;;1.25;100.00;96719.66;5011570;28;20033;-80
2023/01/17 06:01:09;;;;;;;13.90;9.77;;;;;;;1.27;100.00;96719.59;5012015;28;20022;-81
2023/01/17 06:03:35;;;;;;;14.15;9.57;;;;;;;1.32;100.00;96728.66;5012739;28;20026;-81
2023/01/17 06:06:00;;;;;;;14.02;9.35;;;;;;;1.30;100.00;96716.81;5012619;28;20022;-80
2023/01/17 06:08:25;;;;;;;13.70;9.63;;;;;;;1.38;100.00;96727.47;5012469;28;20109;-80
2023/01/17 06:10:51;;;;;;;12.05;9.25;;;;;;;1.32;100.00;96715.84;5012409;28;20458;-81
2023/01/17 06:13:20;;;;;;;13.65;10.50;;;;;;;1.40;100.00;96729.06;5011301;28;20022;-80
2023/01/17 06:15:46;;;;;;;19.48;12.20;;;;;;;1.41;100.00;96743.53;5011248;28;20026;-81
2023/01/17 06:18:14;;;;;;;14.85;10.57;;;;;;;1.52;100.00;96757.47;5012270;28;20026;-81
2023/01/17 06:20:40;;;;;;;10.82;8.23;;;;;;;1.57;100.00;96755.50;5012175;28;20474;-80
2023/01/17 06:23:08;;;;;;;11.55;7.65;;;;;;;1.54;100.00;96747.97;5012186;28;20053;-80
2023/01/17 06:25:45;;;;;;;11.82;7.97;;;;;;;1.64;100.00;96746.50;5010963;28;20519;-80
2023/01/17 06:28:13;;;;;;;10.02;6.95;;;;;;;1.69;100.00;96760.75;5012031;28;20034;-80
2023/01/17 06:30:38;;;;;;;10.35;6.72;;;;;;;1.70;100.00;96752.13;5012409;28;20029;-80
2023/01/17 06:33:04;;;;;;;8.88;6.18;;;;;;;1.76;100.00;96758.63;5011988;28;20497;-80
2023/01/17 06:35:30;;;;;;;10.43;7.55;;;;;;;1.78;100.00;96756.81;5012194;28;20018;-80
2023/01/17 06:37:57;;;;;;;8.32;6.38;;;;;;;1.83;100.00;96764.25;5010540;28;20084;-79
2023/01/17 06:40:26;;;;;;;9.55;7.40;;;;;;;1.78;100.00;96756.81;5012208;28;20040;-80
2023/01/17 06:42:51;;;;;;;10.57;7.55;;;;;;;1.86;100.00;96770.03;5010736;28;20381;-80
2023/01/17 06:45:18;;;;;;;9.85;6.93;;;;;;;1.90;100.00;96771.53;5012257;28;20026;-80
2023/01/17 06:47:43;;;;;;;21.70;16.15;;;;;;;1.91;100.00;96768.03;5012104;28;20485;-79
2023/01/17 06:50:12;;;;;;;22.77;18.85;;;;;;;1.83;100.00;96761.69;5011682;28;20028;-80
2023/01/17 06:52:38;;;;;;;20.73;16.17;;;;;;;1.80;100.00;96772.94;5012177;28;20132;-81
2023/01/17 06:55:04;;;;;;;19.02;12.05;;;;;;;1.75;100.00;96780.09;5011907;28;20018;-81
2023/01/17 06:57:30;;;;;;;16.25;10.57;;;;;;;1.73;100.00;96781.94;5010788;28;20254;-81
2023/01/17 06:59:55;;;;;;;14.02;9.90;;;;;;;1.66;100.00;96770.34;5012060;28;20060;-81
2023/01/17 07:02:20;;;;;;;12.32;8.00;;;;;;;1.70;100.00;96789.78;5011883;28;20033;-81
2023/01/17 07:04:46;;;;;;;11.80;8.70;;;;;;;1.67;100.00;96784.81;5011945;28;20022;-81
2023/01/17 07:07:11;;;;;;;11.13;8.00;;;;;;;1.72;100.00;96783.63;5011648;28;20502;-81
2023/01/17 07:09:37;;;;;;;11.20;6.88;;;;;;;1.69;100.00;96783.84;5011961;28;20112;-81
2023/01/17 07:12:02;;;;;;;9.15;6.30;;;;;;;1.69;100.00;96786.41;5011934;28;20052;-81
2023/01/17 07:14:28;;;;;;;10.38;7.47;;;;;;;1.78;100.00;96803.00;5015031;28;20026;-81
2023/01/17 07:16:54;;;;;;;10.95;8.05;;;;;;;1.72;100.00;96786.22;5015388;28;20026;-81
2023/01/17 07:19:19;;;;;;;10.52;8.07;;;;;;;1.71;100.00;96794.00;5015626;28;20049;-81
2023/01/17 07:21:45;;;;;;;12.60;8.27;;;;;;;1.77;100.00;96803.09;5015355;28;20033;-81
2023/01/17 07:24:10;;;;;;;11.00;7.18;;;;;;;1.82;100.00;96806.25;5015736;28;20172;-81
2023/01/17 07:26:39;;;;;;;10.18;6.78;;;;;;;1.82;100.00;96812.19;4999519;28;20160;-81
2023/01/17 07:29:05;;;;;;;10.35;6.13;;;;;;;1.87;100.00;96810.19;4993671;28;20433;-81
2023/01/17 07:31:35;;;;;;;9.32;5.60;;;;;;;1.82;100.00;96799.38;4995501;28;20069;-80
2023/01/17 07:34:01;;;;;;;6.88;5.50;;;;;;;1.81;100.00;96796.88;4995465;28;20377;-81
2023/01/17 07:36:27;;;;;;;7.40;5.28;;;;;;;1.81;100.00;96796.88;4995535;28;20577;-80
2023/01/17 07:38:53;;;;;;;7.00;4.70;;;;;;;1.88;99.22;96822.09;4995559;28;20038;-81
2023/01/17 07:41:18;;;;;;;7.82;4.68;;;;;;;1.85;99.05;96822.25;4995378;28;20064;-81
2023/01/17 07:43:44;;;;;;;8.57;5.45;;;;;;;1.76;99.36;96817.66;4995258;28;20108;-80
2023/01/17 07:46:10;;;;;;;9.27;5.80;;;;;;;1.68;99.77;96823.22;4995304;28;20068;-80
2023/01/17 07:48:35;;;;;;;9.98;5.50;;;;;;;1.52;100.00;96801.91;4995185;28;20117;-80
2023/01/17 07:51:00;;;;;;;7.78;5.53;;;;;;;1.64;100.00;96826.84;4994891;28;20120;-80
2023/01/17 07:53:29;;;;;;;9.15;5.85;;;;;;;1.74;100.00;96834.88;4995451;28;20508;-80
2023/01/17 07:55:54;;;;;;;12.68;5.57;;;;;;;1.79;100.00;96834.63;4995085;28;20052;-80
2023/01/17 07:58:20;;;;;;;8.70;5.18;;;;;;;1.83;100.00;96836.94;4995037;28;20026;-80
2023/01/17 08:00:45;;;;;;;7.60;4.55;;;;;;;1.88;99.87;96840.06;4995146;28;20046;-80
2023/01/17 08:03:15;;;;;;;13.30;6.30;;;;;;;1.85;99.42;96831.69;4994930;28;20022;-80
2023/01/17 08:05:43;;;;;;;7.73;5.13;;;;;;;1.88;99.41;96834.09;4993958;28;20110;-80
2023/01/17 08:08:08;;;;;;;8.63;5.68;;;;;;;1.94;99.20;96842.28;4995062;28;20018;-80
2023/01/17 08:10:34;;;;;;;10.13;5.38;;;;;;;1.92;99.02;96838.97;4995412;28;20030;-80
2023/01/17 08:13:00;;;;;;;8.85;5.18;;;;;;;1.99;98.96;96853.13;4994870;28;20030;-80
2023/01/17 08:15:25;;;;;;;8.60;5.25;;;;;;;2.00;98.93;96853.94;4995234;28;20343;-81
2023/01/17 08:17:56;;;;;;;8.15;5.22;;;;;;;2.07;98.59;96854.44;4994997;28;20030;-80
2023/01/17 08:20:22;;;;;;;;;;;;;;;2.23;98.32;96862.88;4995353;28;20065;-80
2023/01/17 08:22:47;;;;;;;7.22;4.95;;;;;;;2.24;97.90;96862.81;4994927;28;19941;-80
2023/01/17 08:25:12;;;;;;;8.77;4.45;;;;;;;2.18;97.77;96854.63;4994452;28;20022;-80
2023/01/17 08:27:38;;;;;;;5.95;4.43;;;;;;;2.25;97.36;96871.34;4994826;28;20023;-80
2023/01/17 08:30:05;;;;;;;6.35;4.30;;;;;;;2.18;97.25;96860.59;4994352;28;20443;-80
2023/01/17 08:32:31;;;;;;;10.15;5.00;;;;;;;2.31;97.54;96875.28;4994610;28;20026;-80
2023/01/17 08:34:56;;;;;;;8.27;5.05;;;;;;;2.25;97.42;96869.59;4994322;28;20084;-80
2023/01/17 08:37:22;;;;;;;7.53;5.18;;;;;;;2.31;97.34;96877.84;4994736;28;20026;-80
2023/01/17 08:39:48;;;;;;;9.23;6.80;;;;;;;2.35;97.19;96885.28;4994397;28;20437;-80
2023/01/17 08:42:13;;;;;;;9.60;5.93;;;;;;;2.34;97.04;96885.41;4994048;28;20027;-80
2023/01/17 08:44:38;;;;;;;13.95;8.48;;;;;;;2.27;96.99;96869.50;4993103;28;20030;-80
2023/01/17 08:47:04;;;;;;;13.35;8.88;;;;;;;2.22;97.07;96874.91;4994096;28;20409;-80
2023/01/17 08:49:29;;;;;;;11.85;7.28;;;;;;;2.15;97.04;96865.91;4994479;28;20022;-80
2023/01/17 08:51:54;;;;;;;14.07;8.00;;;;;;;2.23;97.10;96886.00;5009215;28;20014;-80
2023/01/17 08:54:21;;;;;;;21.17;13.68;;;;;;;2.23;97.03;96876.56;4994157;28;20037;-80
2023/01/17 08:56:47;;;;;;;24.58;13.13;;;;;;;2.27;97.07;96873.81;4992848;28;20019;-80
2023/01/17 08:59:12;;;;;;;30.73;17.48;;;;;;;2.31;96.90;96881.25;4993957;28;20088;-80
2023/01/17 09:01:44;;;;;;;42.50;23.90;;;;;;;2.36;96.93;96881.84;4994012;28;20049;-80
2023/01/17 09:04:11;;;;;;;29.40;18.80;;;;;;;2.43;96.74;96869.44;4992613;28;20022;-80
2023/01/17 09:06:42;;;;;;;29.05;20.15;;;;;;;2.56;96.03;96885.78;4994197;28;20033;-80
2023/01/17 09:09:12;;;;;;;29.33;17.80;;;;;;;2.79;96.14;96899.06;4992462;28;20109;-80
2023/01/17 09:11:37;;;;;;;38.00;26.42;;;;;;;2.87;95.50;96905.38;4994008;28;20049;-80
2023/01/17 09:14:03;;;;;;;59.78;46.85;;;;;;;2.98;95.49;96904.72;4993641;28;20116;-80
2023/01/17 09:16:29;;;;;;;37.42;30.83;;;;;;;3.09;95.07;96899.78;4994050;28;20061;-80
2023/01/17 09:18:56;;;;;;;13.25;7.68;;;;;;;3.26;94.67;96914.19;4993790;28;20023;-80
2023/01/17 09:21:22;;;;;;;13.20;8.07;;;;;;;3.36;94.28;96915.25;4993566;28;20026;-80
2023/01/17 09:23:47;;;;;;;14.02;8.00;;;;;;;3.43;93.97;96900.28;4993679;28;20033;-80
2023/01/17 09:26:24;;;;;;;15.38;9.68;;;;;;;3.46;93.59;96900.94;4993721;28;20022;-80
2023/01/17 09:28:51;;;;;;;18.15;10.93;;;;;;;3.59;93.17;96913.88;4993503;28;20050;-80
2023/01/17 09:31:17;;;;;;;14.10;7.68;;;;;;;3.70;92.90;96910.59;4993598;28;20050;-80
2023/01/17 09:33:43;;;;;;;14.45;9.40;;;;;;;3.74;92.92;96917.22;4993700;28;20030;-80
2023/01/17 09:36:09;;;;;;;16.75;7.88;;;;;;;3.71;92.42;96899.41;4992774;28;20030;-80
2023/01/17 09:38:35;;;;;;;8.88;5.82;;;;;;;3.79;92.09;96904.03;4993384;28;20089;-80
2023/01/17 09:41:02;;;;;;;5.75;4.03;;;;;;;3.84;91.10;96895.13;4991725;28;20057;-80
2023/01/17 09:44:12;;;;;;;7.13;4.65;;;;;;;3.97;90.55;96905.47;4993564;28;20037;-80
2023/01/17 09:46:42;;;;;;;16.00;14.27;;;;;;;3.99;89.67;96906.19;5010491;28;20037;-80
2023/01/17 09:49:13;;;;;;;9.07;7.10;;;;;;;3.95;89.15;96904.72;5010481;28;20041;-80
2023/01/17 09:51:41;;;;;;;13.90;11.27;;;;;;;3.96;88.94;96885.78;5010326;28;20531;-80
2023/01/17 09:54:20;;;;;;;11.15;8.48;;;;;;;4.14;88.16;96902.63;5010367;28;20369;-80
2023/01/17 09:56:53;;;;;;;16.65;13.73;;;;;;;4.23;88.19;96893.50;5010288;28;20041;-80
2023/01/17 09:59:33;;;;;;;22.67;16.10;;;;;;;4.32;88.23;96898.03;5009924;28;20030;-80
2023/01/17 10:02:20;;;;;;;21.30;16.55;;;;;;;4.31;88.08;96896.41;4993590;28;20049;-81
2023/01/17 10:05:07;;;;;;;16.13;10.20;;;;;;;4.34;87.46;96898.78;5010235;28;20033;-81
2023/01/17 10:08:12;;;;;;;9.75;6.55;;;;;;;4.35;86.74;96899.59;5010149;28;20026;-81
2023/01/17 10:11:07;;;;;;;14.90;10.95;;;;;;;4.47;86.54;96914.25;5010109;28;20061;-81
2023/01/17 10:14:14;;;;;;;8.88;6.22;;;;;;;4.54;86.49;96912.91;5010116;28;20026;-81
2023/01/17 10:17:04;;;;;;;18.25;14.38;;;;;;;4.58;85.87;96911.78;4932800;29;20049;-81
2023/01/17 10:20:23;;;;;;;14.50;10.38;;;;;;;4.69;85.44;96911.09;4948665;29;20023;-81
2023/01/17 10:23:05;;;;;;;8.43;5.32;;;;;;;4.73;84.85;96922.84;4906726;29;20032;-80
2023/01/17 10:25:37;;;;;;;6.55;4.78;;;;;;;4.71;85.10;96915.19;4895062;29;20091;-80
2023/01/17 10:28:17;;;;;;;9.48;5.72;;;;;;;4.74;85.10;96914.19;4894164;29;20044;-80
2023/01/17 10:31:03;;;;;;;10.23;8.70;;;;;;;4.78;84.76;96925.94;4894738;29;20123;-80
2023/01/17 10:33:46;;;;;;;11.50;7.50;;;;;;;4.74;84.55;96917.56;4894574;29;20439;-80
2023/01/17 10:36:34;;;;;;;10.98;6.50;;;;;;;4.77;84.40;96926.88;4893544;29;20044;-80
2023/01/17 10:39:03;;;;;;;18.00;10.63;;;;;;;4.79;84.19;96927.56;4894509;29;20032;-80
2023/01/17 10:41:31;;;;;;;16.27;8.32;;;;;;;4.83;83.65;96929.03;4894441;29;20037;-80
2023/01/17 10:44:09;;;;;;;16.17;9.77;;;;;;;4.86;83.24;96928.00;4894495;29;20654;-80
2023/01/17 10:46:44;;;;;;;15.85;10.02;;;;;;;4.93;82.86;96940.41;4894644;29;20115;-80
2023/01/17 10:49:22;;;;;;;11.43;7.55;;;;;;;4.97;82.40;96928.09;4896774;29;20033;-80
2023/01/17 10:52:07;;;;;;;11.70;8.00;;;;;;;4.95;81.58;96929.97;4898273;29;20032;-80
2023/01/17 10:54:52;;;;;;;21.08;14.20;;;;;;;5.04;80.67;96936.25;4987933;28;20050;-80
2023/01/17 10:57:22;;;;;;;14.25;8.15;;;;;;;4.99;79.74;96924.50;4995108;28;20073;-80
2023/01/17 10:59:49;;;;;;;24.65;11.27;;;;;;;5.12;79.53;96929.66;4996347;28;20472;-80
2023/01/17 11:02:17;;;;;;;24.85;9.40;;;;;;;5.23;78.51;96934.09;4994748;28;20072;-80
2023/01/17 11:04:47;;;;;;;15.75;9.35;;;;;;;5.21;78.13;96917.88;4995162;28;20030;-80
2023/01/17 11:07:19;;;;;;;23.85;10.40;;;;;;;5.36;78.45;96928.91;4996247;28;20018;-80
2023/01/17 11:09:47;;;;;;;18.25;7.60;;;;;;;5.41;76.92;96929.41;4995051;28;20092;-80
2023/01/17 11:12:29;;;;;;;7.60;4.80;;;;;;;5.34;76.73;96923.00;4995905;28;20485;-81
2023/01/17 11:15:08;;;;;;;9.98;5.72;;;;;;;5.36;77.03;96934.06;4996058;28;20105;-81
2023/01/17 11:17:37;;;;;;;10.57;5.28;;;;;;;5.46;77.09;96927.31;4996178;28;20022;-80
2023/01/17 11:20:18;;;;;;;16.42;9.40;;;;;;;5.49;76.92;96934.88;4996066;28;20116;-81
2023/01/17 11:22:58;;;;;;;12.68;9.15;;;;;;;5.45;76.55;96938.59;4996058;28;20022;-81
2023/01/17 11:25:24;;;;;;;11.35;7.93;;;;;;;5.58;76.73;96923.91;4995939;28;20023;-81
2023/01/17 11:28:06;;;;;;;17.08;9.02;;;;;;;5.67;75.82;96930.16;4995844;28;20350;-81
2023/01/17 11:30:32;;;;;;;14.82;8.73;;;;;;;5.62;75.92;96924.50;4995962;28;20050;-81
2023/01/17 11:32:58;;;;;;;14.15;8.82;;;;;;;5.90;75.80;96931.13;4995792;28;20046;-81
2023/01/17 11:35:29;;;;;;;12.38;10.07;;;;;;;5.95;74.91;96931.66;4995612;28;20033;-81
2023/01/17 11:38:18;;;;;;;13.00;9.25;;;;;;;5.78;74.95;96917.34;4994158;28;20072;-80
2023/01/17 11:40:44;;;;;;;11.80;10.20;;;;;;;5.68;75.64;96906.81;4995760;28;20398;-81
2023/01/17 11:43:10;;;;;;;32.75;22.05;;;;;;;5.79;75.38;96925.91;4994165;28;20399;-81
2023/01/17 11:45:36;;;;;;;11.73;9.00;;;;;;;5.66;75.17;96916.44;4995768;28;20029;-80
2023/01/17 11:48:07;;;;;;;11.10;10.00;;;;;;;5.79;75.56;96929.31;4995464;28;20023;-80
2023/01/17 11:50:42;;;;;;;9.43;8.02;;;;;;;5.84;75.40;96916.88;4995406;28;20026;-80
2023/01/17 11:53:23;;;;;;;10.27;7.50;;;;;;;5.96;75.33;96938.47;4995345;28;20117;-80
2023/01/17 11:55:52;;;;;;;18.63;12.45;;;;;;;5.93;75.12;96939.50;4995350;28;20034;-80
2023/01/17 11:58:19;;;;;;;30.25;18.98;;;;;;;6.05;74.52;96931.81;4994856;28;20144;-80
2023/01/17 12:00:53;;;;;;;17.77;11.48;;;;;;;6.01;74.51;96933.81;4994859;28;20070;-80
2023/01/17 12:03:55;;;;;;;17.25;11.85;;;;;;;6.00;74.75;96932.97;4994958;28;20375;-80
2023/01/17 12:06:48;;;;;;;11.23;8.98;;;;;;;6.16;75.05;96931.88;4995043;28;20058;-80
2023/01/17 12:09:35;;;;;;;8.75;6.38;;;;;;;6.08;74.70;96924.69;4994763;28;20032;-80
2023/01/17 12:15:26;;;;;;;8.27;5.72;;;;;;;5.84;74.64;96931.56;5006432;28;20592;-80
2023/01/17 12:18:29;;;;;;;20.13;10.90;;;;;;;5.59;74.96;96930.69;5004741;28;20069;-80
2023/01/17 12:21:39;;;;;;;43.58;24.83;;;;;;;5.45;75.76;96939.41;5002207;28;20381;-80
2023/01/17 12:24:49;;;;;;;22.67;16.17;;;;;;;5.27;76.17;96927.78;5004763;28;20093;-80
2023/01/17 12:27:27;;;;;;;30.48;22.90;;;;;;;5.17;76.08;96934.47;5004168;28;20022;-80
2023/01/17 12:30:20;;;;;;;18.30;10.90;;;;;;;5.14;76.70;96922.63;5009101;28;20080;-80
2023/01/17 12:32:57;;;;;;;29.77;21.25;;;;;;;5.02;76.56;96927.81;5004416;28;20057;-81
2023/01/17 12:35:51;;;;;;;19.20;13.88;;;;;;;4.86;76.82;96923.66;5004240;28;20022;-81
2023/01/17 12:38:25;;;;;;;32.35;23.75;;;;;;;4.86;77.22;96915.94;4971081;28;20026;-81
2023/01/17 12:41:04;;;;;;;27.25;17.38;;;;;;;4.76;77.12;96922.63;4971117;28;20053;-80
2023/01/17 12:43:38;;;;;;;20.70;13.02;;;;;;;4.61;77.76;96918.50;4971402;28;20069;-80
2023/01/17 12:46:15;;;;;;;35.65;21.30;;;;;;;4.72;78.09;96923.78;4972558;28;20039;-80
2023/01/17 12:48:42;;;;;;;47.13;25.40;;;;;;;4.66;78.28;96921.59;4972630;28;20034;-80
2023/01/17 12:51:17;;;;;;;51.08;30.38;;;;;;;4.64;78.31;96924.28;4971842;28;20035;-79
2023/01/17 12:53:52;;;;;;;33.95;22.80;;;;;;;4.78;78.69;96930.28;4970977;28;20022;-79
2023/01/17 12:56:50;;;;;;;31.45;21.30;;;;;;;4.87;78.46;96916.75;4970641;28;20126;-79
2023/01/17 12:59:27;;;;;;;18.75;11.73;;;;;;;4.80;78.45;96916.31;4970380;28;20059;-84
2023/01/17 13:01:57;;;;;;;9.27;6.53;;;;;;;4.95;78.80;96925.63;4970841;28;20482;-84
2023/01/17 13:04:34;;;;;;;17.67;15.35;;;;;;;5.05;78.80;96930.16;4968456;28;20067;-83
2023/01/17 13:07:20;;;;;;;22.02;16.10;;;;;;;5.07;78.47;96928.31;4952186;28;20022;-84
2023/01/17 13:10:06;;;;;;;20.48;16.42;;;;;;;5.23;78.55;96927.16;4968950;28;20030;-84